KSAV/SAV METAR and TAF weather

Enter ICAO airport designator
Station Type Date Time Source
KSAV METAR 2019/06/16 20:53 UTC NOAA

KSAV 162053Z 15013KT 10SM SCT080 BKN200 31/22 A3002 RMK AO2 SLP165 T03110222 56014 $


Station Type Date Time Source
KSAV Decoded METAR 2019/06/16 20:53 UTC NOAA

SAVANNAH INTERNATIONAL AIRPORT , GA, United States (KSAV) 32-07N 81-12W 14M
Jun 16, 2019 - 04:53 PM EDT / 2019.06.16 2053 UTC
Wind: from the SSE (150 degrees) at 15 MPH (13 KT):0
Visibility: 10 mile(s):0
Sky conditions: mostly cloudy
Temperature: 88.0 F (31.1 C)
Heat index: 94.6 F (34.8 C):1
Dew Point: 72.0 F (22.2 C)
Relative Humidity: 59%
Pressure (altimeter): 30.02 in. Hg (1016 hPa)
Pressure tendency: 0.04 inches (1.4 hPa) lower than three hours ago
ob: KSAV 162053Z 15013KT 10SM SCT080 BKN200 31/22 A3002 RMK AO2 SLP165 T03110222 56014
cycle: 21

Station Type Date Time Source
KSAV TAF 2019/06/16 18:31 UTC NOAA

TAF KSAV 161728Z 1618/1718 16005KT P6SM VCSH SCT035 BKN250
FM162100 15008KT P6SM SCT045 BKN250
FM170300 VRB03KT P6SM SCT250

Example: see airport list